首页
METAR-TAF:

METAR-TAF

机场 :

伯尔尼-贝尔普机场

伯尔尼, 瑞士

纬度: 46-55N, 经度: 007-30E, 海拔: 505米

当前天气观测

该预报发布于27分钟前的03:20 UTC
风速1节,风向多变
温度 5°C
湿度 100%
气压 1031 hPa
能见度10公里或以上
1500米以下无云,无积雨云

METAR: LSZB 250320Z AUTO VRB01KT CAVOK 05/05 Q1031

时间: 05:47 (03:47 UTC)

预报

该预报发布于1小时和22分钟前的02:25 UTC
预报有效从25日的 03点(UTC)到 25日的 12点(UTC)
风速3节,风向多变
能见度10公里或以上
1500米以下无云,无积雨云

TAF: LSZB 250225Z 2503/2512 VRB03KT CAVOK

超过4000个机场的气象观测和天气预报(METAR&TAF报告)。

可查询的气象台以黄色和红色小点在地图上表示。

将鼠标移到小点上方,可查看气象台名称。

然后点击查看天气观测和预报。

如需切换地图:点击带黑十字的绿色按钮放大地图;点击带横线的绿色按钮缩小地图;或者点击绿色箭头查看邻近地区的地图。


METAR-TAF: